Light Rain Showers Current Weather (METAR) For Innsbruck - Kranebitten Airport

All times on the weather descriptions are local

Observed at 07:50 - (32 mins ago)

Light Rain Showers

5°C

Light Rain Showers
Clouds: Few Clouds at 1,500ft, Scattered Clouds at 3,000ft, Broken Clouds at 6,000ft
Wind: 300° at 06 knots, varying from 250° to 360
Visibility: Greater than 10km
QNH: 1013
Dew Point: 2°C
Runway in Use: Likely Runway 26

Sunrise Today: 07:42
Sunset Today: 18:15

Forecast Weather (TAF) For Innsbruck - Kranebitten Airport

Issued at 02:00 - (8 days 17 hrs ago)


Runway in Use: Unable to determine, wind is clam

Forecast valid until 02:00 on Friday

METAR/TAF RAW METAR / TAF

LOWI 220550Z 30006KT 250V360 9999 -SHRA FEW015 SCT030 BKN060 05/02 Q1013 WS R26 NOSIG

Weather Widget

Put weather from any of our airports on your website with our weather widget.

Find Another Search

Airport Search


Please Wait Please Wait - Loading
Close
Close

Login

Username:

Password:

Remember Me:

Remember me on this computer

Forgotten your password? Get a reset password sent to your registered e-mail address

Close

User Private Message

Subject:

Message: